< < Back
Terminal Aerodrome Forecast


Current Version              Previous Versions:   1  2  3  4  5  6  7  8  9  

Terminal Aerodrome Forecast

691
FTUS42 KGSP 011134
TAFCLT
TAF
KCLT 011134Z 0112/0212 23004KT P6SM BKN120
     FM011500 19007KT P6SM BKN200
     FM012200 18008KT P6SM OVC040
     FM020300 18013KT 4SM -SHRA SCT015 OVC025
     FM020600 20015KT 2SM -SHRA BR OVC007=

Latest METAR

591
SAUS70 KWBC 012200 RRO
MTRCLT
METAR KCLT 012152Z 16011KT 10SM FEW055 BKN100 BKN130 13/03 A3000 RMK AO2
SLP160 T01330028


USA.gov is the U.S. government's official web portal to all federal, state and local government web resources and services.